createdAt,value
2023-05-21T00:00:02.478Z,18.90
2023-05-21T00:02:41.332Z,20.13
2023-05-21T00:05:14.441Z,20.27
2023-05-21T00:07:42.828Z,20.23
2023-05-21T00:10:11.407Z,21.92
2023-05-21T00:12:39.193Z,18.70
2023-05-21T00:15:07.821Z,20.27
2023-05-21T00:17:36.866Z,23.95
2023-05-21T00:20:09.343Z,19.60
2023-05-21T00:22:37.220Z,21.67
2023-05-21T00:25:05.380Z,21.35
2023-05-21T00:27:33.120Z,21.33
2023-05-21T00:30:01.413Z,20.08
2023-05-21T00:32:30.739Z,19.10
2023-05-21T00:34:58.661Z,20.80
2023-05-21T00:37:29.714Z,20.20
2023-05-21T00:39:58.380Z,21.25
2023-05-21T00:42:27.282Z,20.73
2023-05-21T00:44:56.083Z,18.33
2023-05-21T00:47:24.973Z,20.77
2023-05-21T00:49:53.572Z,18.10
2023-05-21T00:52:23.078Z,22.38
2023-05-21T00:54:53.264Z,18.58
2023-05-21T00:57:26.412Z,18.48
2023-05-21T00:59:54.935Z,22.25
2023-05-21T01:02:26.112Z,19.70
2023-05-21T01:04:56.128Z,20.42
2023-05-21T01:07:24.356Z,19.35
2023-05-21T01:09:54.614Z,18.80
2023-05-21T01:12:24.490Z,21.83
2023-05-21T01:14:53.435Z,20.77
2023-05-21T01:17:24.575Z,19.02
2023-05-21T01:19:54.800Z,18.10
2023-05-21T01:22:25.171Z,19.50
2023-05-21T01:24:57.753Z,19.45
2023-05-21T01:27:25.612Z,20.75
2023-05-21T01:29:54.475Z,19.38
2023-05-21T01:32:30.245Z,19.38
2023-05-21T01:35:03.186Z,20.15
2023-05-21T01:37:35.994Z,20.50
2023-05-21T01:40:11.891Z,19.25
2023-05-21T01:42:44.215Z,18.75
2023-05-21T01:45:13.068Z,19.02
2023-05-21T01:47:43.023Z,17.77
2023-05-21T01:50:12.211Z,21.60
2023-05-21T01:52:39.999Z,18.63
2023-05-21T01:55:10.164Z,19.92
2023-05-21T01:57:37.944Z,18.67
2023-05-21T02:00:07.959Z,18.33
2023-05-21T02:02:43.574Z,19.08
2023-05-21T02:05:12.200Z,18.05
2023-05-21T02:07:40.396Z,20.35
2023-05-21T02:10:11.807Z,18.88
2023-05-21T02:12:39.693Z,20.92
2023-05-21T02:15:08.614Z,20.15
2023-05-21T02:17:38.875Z,21.13
2023-05-21T02:20:13.924Z,18.55
2023-05-21T02:22:43.548Z,21.00
2023-05-21T02:25:15.826Z,19.88
2023-05-21T02:27:44.660Z,19.58
2023-05-21T02:30:14.037Z,19.33
2023-05-21T02:32:43.158Z,17.80
2023-05-21T02:35:13.597Z,19.30
2023-05-21T02:37:42.085Z,19.52
2023-05-21T02:40:11.374Z,23.35
2023-05-21T02:42:41.846Z,19.00
2023-05-21T02:45:14.555Z,20.63
2023-05-21T02:47:44.238Z,20.17
2023-05-21T02:50:13.034Z,19.35
2023-05-21T02:52:49.399Z,18.08
2023-05-21T02:55:17.454Z,18.50
2023-05-21T02:57:46.532Z,20.48
2023-05-21T03:00:16.449Z,18.35
2023-05-21T03:02:45.106Z,19.35
2023-05-21T03:05:13.249Z,18.95
2023-05-21T03:07:41.873Z,17.85
2023-05-21T03:10:10.313Z,20.73
2023-05-21T03:12:39.274Z,21.02
2023-05-21T03:15:09.878Z,21.65
2023-05-21T03:17:37.756Z,18.38
2023-05-21T03:20:06.600Z,20.92
2023-05-21T03:22:34.697Z,19.55
2023-05-21T03:25:02.859Z,19.90
2023-05-21T03:27:31.220Z,18.63
2023-05-21T03:30:00.700Z,19.65
2023-05-21T03:32:30.288Z,20.15
2023-05-21T03:34:58.587Z,21.17
2023-05-21T03:37:26.883Z,21.20
2023-05-21T03:39:54.704Z,17.92
2023-05-21T03:42:22.701Z,20.20
2023-05-21T03:44:54.339Z,21.15
2023-05-21T03:47:49.938Z,21.10
2023-05-21T03:50:18.129Z,19.27
2023-05-21T03:52:46.090Z,21.95
2023-05-21T03:55:14.519Z,17.10
2023-05-21T03:57:42.773Z,19.15
2023-05-21T04:00:11.415Z,20.00
2023-05-21T04:02:45.423Z,18.63
2023-05-21T04:05:18.676Z,19.33
2023-05-21T04:07:47.348Z,18.45
2023-05-21T04:10:15.375Z,22.17
2023-05-21T04:12:43.457Z,20.92
2023-05-21T04:15:12.620Z,19.23
2023-05-21T04:17:40.498Z,17.05
2023-05-21T04:20:09.819Z,21.02
2023-05-21T04:22:39.130Z,21.40
2023-05-21T04:25:07.405Z,20.02
2023-05-21T04:27:38.861Z,23.15
2023-05-21T04:30:09.635Z,21.02
2023-05-21T04:32:38.413Z,18.50
2023-05-21T04:35:10.050Z,18.42
2023-05-21T04:37:42.073Z,19.10
2023-05-21T04:40:10.999Z,18.17
2023-05-21T04:42:39.274Z,20.30
2023-05-21T04:45:08.723Z,19.05
2023-05-21T04:47:39.543Z,19.85
2023-05-21T04:50:08.731Z,20.13
2023-05-21T04:52:37.000Z,18.40
2023-05-21T04:55:08.183Z,19.73
2023-05-21T04:57:36.181Z,23.15
2023-05-21T05:00:06.276Z,20.08
2023-05-21T05:02:40.273Z,20.35
2023-05-21T05:05:09.482Z,23.05
2023-05-21T05:07:37.280Z,20.52
2023-05-21T05:10:07.767Z,19.30
2023-05-21T05:12:36.003Z,19.27
2023-05-21T05:15:03.895Z,19.10
2023-05-21T05:17:31.919Z,18.42
2023-05-21T05:19:59.812Z,19.58
2023-05-21T05:22:27.981Z,19.33
2023-05-21T05:24:55.973Z,21.65
2023-05-21T05:27:25.652Z,20.17
2023-05-21T05:29:53.434Z,20.13
2023-05-21T05:32:21.510Z,18.65
2023-05-21T05:34:49.858Z,20.50
2023-05-21T05:37:18.231Z,19.48
2023-05-21T05:39:46.136Z,17.75
2023-05-21T05:42:15.354Z,20.10
2023-05-21T05:44:44.461Z,18.98
2023-05-21T05:47:12.235Z,18.70
2023-05-21T05:49:41.615Z,17.95
2023-05-21T05:52:10.331Z,20.13
2023-05-21T05:54:38.696Z,19.60
2023-05-21T05:57:07.090Z,20.58
2023-05-21T05:59:36.003Z,19.65
2023-05-21T06:02:07.440Z,19.35
2023-05-21T06:04:35.644Z,18.88
2023-05-21T06:07:04.345Z,18.50
2023-05-21T06:09:32.760Z,17.77
2023-05-21T06:12:00.956Z,19.17
2023-05-21T06:14:28.828Z,23.23
2023-05-21T06:16:56.821Z,18.67
2023-05-21T06:19:28.086Z,19.40
2023-05-21T06:21:56.934Z,18.55
2023-05-21T06:24:24.610Z,19.85
2023-05-21T06:26:53.024Z,19.38
2023-05-21T06:29:21.522Z,18.17
2023-05-21T06:31:49.665Z,20.98
2023-05-21T06:34:17.528Z,19.60
2023-05-21T06:36:47.682Z,17.25
2023-05-21T06:39:20.964Z,18.58
2023-05-21T06:41:50.214Z,19.80
2023-05-21T06:44:43.511Z,18.75
2023-05-21T06:47:26.276Z,21.30
2023-05-21T06:49:54.907Z,19.73
2023-05-21T06:52:24.310Z,17.85
2023-05-21T06:54:52.130Z,17.77
2023-05-21T06:57:21.424Z,17.50
2023-05-21T06:59:49.314Z,17.92
2023-05-21T07:02:17.342Z,17.60
2023-05-21T07:04:45.318Z,19.58
2023-05-21T07:07:14.522Z,17.60
2023-05-21T07:09:44.365Z,18.42
2023-05-21T07:12:12.203Z,16.73
2023-05-21T07:14:40.749Z,16.98
2023-05-21T07:17:08.746Z,17.80
2023-05-21T07:19:38.120Z,16.05
2023-05-21T07:22:06.681Z,16.55
2023-05-21T07:24:34.564Z,16.65
2023-05-21T07:27:08.851Z,17.65
2023-05-21T07:29:42.696Z,19.70
2023-05-21T07:32:10.509Z,17.17
2023-05-21T07:34:38.781Z,16.85
2023-05-21T07:37:06.875Z,16.40
2023-05-21T07:39:34.650Z,17.73
2023-05-21T07:42:04.093Z,17.50
2023-05-21T07:44:32.348Z,17.40
2023-05-21T07:47:00.716Z,16.10
2023-05-21T07:49:31.012Z,16.17
2023-05-21T07:52:02.173Z,16.73
2023-05-21T07:54:30.858Z,16.42
2023-05-21T07:56:58.934Z,17.58
2023-05-21T07:59:48.422Z,17.80
2023-05-21T08:02:17.141Z,17.27
2023-05-21T08:04:45.617Z,16.65
2023-05-21T08:07:13.828Z,17.15
2023-05-21T08:09:42.343Z,16.60
2023-05-21T08:12:15.751Z,16.98
2023-05-21T08:14:44.939Z,15.82
2023-05-21T08:17:17.035Z,16.10
2023-05-21T08:19:45.348Z,15.85
2023-05-21T08:22:13.831Z,16.25
2023-05-21T08:24:45.909Z,16.17
2023-05-21T08:27:15.159Z,16.50
2023-05-21T08:29:43.916Z,15.93
2023-05-21T08:32:11.845Z,15.63
2023-05-21T08:34:41.487Z,15.55
2023-05-21T08:37:19.981Z,16.05
2023-05-21T08:40:01.334Z,15.50
2023-05-21T08:42:41.458Z,18.35
2023-05-21T08:45:14.661Z,15.23
2023-05-21T08:47:44.456Z,16.05
2023-05-21T08:50:19.516Z,15.23
2023-05-21T08:52:49.008Z,15.13
2023-05-21T08:55:18.709Z,14.60
2023-05-21T08:57:46.745Z,14.98
2023-05-21T09:00:18.347Z,16.13
2023-05-21T09:02:46.673Z,14.38
2023-05-21T09:05:18.007Z,14.93
2023-05-21T09:07:52.491Z,14.98
2023-05-21T09:10:37.029Z,17.88
2023-05-21T09:13:05.273Z,14.75
2023-05-21T09:15:33.805Z,14.10
2023-05-21T09:18:02.423Z,14.65
2023-05-21T09:20:45.361Z,14.23
2023-05-21T09:23:16.921Z,13.25
2023-05-21T09:25:46.829Z,14.32
2023-05-21T09:28:21.475Z,14.68
2023-05-21T09:30:50.862Z,14.48
2023-05-21T09:33:27.048Z,14.15
2023-05-21T09:35:57.632Z,13.32
2023-05-21T09:38:27.884Z,14.75
2023-05-21T09:40:57.451Z,13.43
2023-05-21T09:43:26.637Z,13.77
2023-05-21T09:45:59.716Z,15.20
2023-05-21T09:48:37.872Z,14.35
2023-05-21T09:51:11.396Z,14.52
2023-05-21T09:53:44.922Z,13.57
2023-05-21T09:56:13.054Z,13.05
2023-05-21T09:58:41.775Z,14.00
2023-05-21T10:01:11.838Z,12.68
2023-05-21T10:03:41.314Z,13.23
2023-05-21T10:06:11.616Z,13.80
2023-05-21T10:08:45.994Z,14.20
2023-05-21T10:11:14.730Z,13.80
2023-05-21T10:13:46.395Z,12.77
2023-05-21T10:16:15.709Z,13.23
2023-05-21T10:18:46.344Z,12.82
2023-05-21T10:21:16.224Z,13.98
2023-05-21T10:23:45.463Z,13.13
2023-05-21T10:26:14.090Z,13.38
2023-05-21T10:28:43.149Z,14.50
2023-05-21T10:31:12.259Z,12.98
2023-05-21T10:33:43.075Z,13.45
2023-05-21T10:36:11.529Z,12.07
2023-05-21T10:38:44.313Z,13.85
2023-05-21T10:41:14.086Z,12.65
2023-05-21T10:43:49.614Z,11.27
2023-05-21T10:46:35.950Z,12.52
2023-05-21T10:49:22.587Z,12.55
2023-05-21T10:52:00.208Z,15.80
2023-05-21T10:54:54.740Z,11.65
2023-05-21T10:57:45.609Z,11.90
2023-05-21T11:00:17.091Z,11.50
2023-05-21T11:02:45.787Z,11.07
2023-05-21T11:05:13.850Z,11.45
2023-05-21T11:07:57.127Z,9.40
2023-05-21T11:10:40.839Z,9.85
2023-05-21T11:13:10.256Z,10.27
2023-05-21T11:16:14.536Z,9.68
2023-05-21T11:19:01.727Z,9.25
2023-05-21T11:21:36.886Z,10.52
2023-05-21T11:24:08.629Z,11.75
2023-05-21T11:27:04.983Z,10.85
2023-05-21T11:29:40.433Z,9.32
2023-05-21T11:32:10.633Z,10.35
2023-05-21T11:34:40.679Z,10.63
2023-05-21T11:37:27.601Z,10.75
2023-05-21T11:39:56.714Z,10.05
2023-05-21T11:42:34.059Z,10.88
2023-05-21T11:45:04.203Z,10.32
2023-05-21T11:47:33.525Z,10.93
2023-05-21T11:50:03.263Z,10.05
2023-05-21T11:52:32.958Z,11.20
2023-05-21T11:55:02.026Z,10.32
2023-05-21T11:57:32.162Z,11.05
2023-05-21T12:00:01.825Z,10.48
2023-05-21T12:02:32.439Z,13.93
2023-05-21T12:05:01.205Z,11.60
2023-05-21T12:07:31.391Z,10.60
2023-05-21T12:09:59.931Z,13.98
2023-05-21T12:12:38.528Z,11.18
2023-05-21T12:15:13.727Z,10.05
2023-05-21T12:17:42.788Z,11.48
2023-05-21T12:20:16.587Z,10.50
2023-05-21T12:22:45.550Z,12.23
2023-05-21T12:25:13.427Z,10.50
2023-05-21T12:27:45.304Z,11.30
2023-05-21T12:30:15.058Z,11.25
2023-05-21T12:32:45.198Z,10.13
2023-05-21T12:35:22.428Z,11.10
2023-05-21T12:37:52.129Z,10.88
2023-05-21T12:40:21.154Z,11.18
2023-05-21T12:42:49.331Z,11.80
2023-05-21T12:45:21.237Z,10.80
2023-05-21T12:47:56.008Z,10.15
2023-05-21T12:50:24.809Z,10.13
2023-05-21T12:52:56.589Z,10.23
2023-05-21T12:55:26.079Z,11.05
2023-05-21T12:58:03.524Z,11.02
2023-05-21T13:00:34.673Z,10.32
2023-05-21T13:03:06.799Z,10.80
2023-05-21T13:05:35.587Z,10.65
2023-05-21T13:08:04.681Z,10.70
2023-05-21T13:10:32.950Z,10.27
2023-05-21T13:13:01.769Z,9.75
2023-05-21T13:15:29.830Z,10.70
2023-05-21T13:18:01.645Z,10.50
2023-05-21T13:20:29.901Z,10.63
2023-05-21T13:22:57.804Z,9.88
2023-05-21T13:25:29.120Z,10.23
2023-05-21T13:27:57.827Z,10.35
2023-05-21T13:30:25.698Z,10.10
2023-05-21T13:32:55.109Z,10.60
2023-05-21T13:35:24.870Z,12.00
2023-05-21T13:37:52.821Z,11.05
2023-05-21T13:40:21.187Z,10.45
2023-05-21T13:42:50.696Z,10.45
2023-05-21T13:45:23.131Z,9.77
2023-05-21T13:47:51.133Z,9.90
2023-05-21T13:50:19.515Z,10.13
2023-05-21T13:52:49.029Z,10.18
2023-05-21T13:55:17.050Z,10.07
2023-05-21T13:57:45.972Z,10.02
2023-05-21T14:00:16.089Z,9.25
2023-05-21T14:02:45.219Z,9.82
2023-05-21T14:05:13.522Z,9.45
2023-05-21T14:07:42.229Z,9.95
2023-05-21T14:10:12.393Z,9.35
2023-05-21T14:12:40.821Z,9.43
2023-05-21T14:15:09.715Z,9.73
2023-05-21T14:17:40.739Z,9.82
2023-05-21T14:20:10.028Z,9.60
2023-05-21T14:22:39.120Z,10.43
2023-05-21T14:25:08.349Z,9.32
2023-05-21T14:27:38.807Z,10.18
2023-05-21T14:30:08.144Z,9.57
2023-05-21T14:32:36.232Z,10.95
2023-05-21T14:35:05.160Z,9.65
2023-05-21T14:37:33.178Z,12.52
2023-05-21T14:40:02.428Z,9.63
2023-05-21T14:42:30.855Z,8.75
2023-05-21T14:45:16.874Z,9.27
2023-05-21T14:47:47.779Z,8.98
2023-05-21T14:50:17.899Z,8.93
2023-05-21T14:52:46.477Z,9.20
2023-05-21T14:55:16.756Z,9.63
2023-05-21T14:57:45.219Z,7.88
2023-05-21T15:00:15.697Z,7.72
2023-05-21T15:02:44.190Z,8.82
2023-05-21T15:05:12.686Z,7.90
2023-05-21T15:07:40.763Z,8.25
2023-05-21T15:10:10.589Z,9.57
2023-05-21T15:12:38.721Z,8.85
2023-05-21T15:15:07.777Z,8.88
2023-05-21T15:17:37.330Z,8.98
2023-05-21T15:20:06.934Z,8.65
2023-05-21T15:22:35.642Z,8.38
2023-05-21T15:25:04.789Z,9.13
2023-05-21T15:27:33.528Z,8.35
2023-05-21T15:30:02.616Z,8.50
2023-05-21T15:32:32.717Z,8.48
2023-05-21T15:35:02.559Z,9.43
2023-05-21T15:37:32.396Z,8.73
2023-05-21T15:40:00.753Z,9.27
2023-05-21T15:42:31.271Z,8.23
2023-05-21T15:45:00.059Z,10.02
2023-05-21T15:47:28.264Z,9.07
2023-05-21T15:49:56.630Z,8.77
2023-05-21T15:52:26.063Z,8.15
2023-05-21T15:54:54.720Z,10.00
2023-05-21T15:57:22.979Z,7.40
2023-05-21T15:59:52.768Z,7.43
2023-05-21T16:02:22.009Z,8.43
2023-05-21T16:04:52.918Z,9.70
2023-05-21T16:07:21.070Z,7.95
2023-05-21T16:09:51.158Z,8.35
2023-05-21T16:12:19.661Z,8.20
2023-05-21T16:14:49.875Z,8.57
2023-05-21T16:17:18.410Z,8.55
2023-05-21T16:19:47.645Z,8.77
2023-05-21T16:22:16.023Z,8.50
2023-05-21T16:24:44.199Z,13.13
2023-05-21T16:27:14.887Z,9.40
2023-05-21T16:29:43.578Z,9.52
2023-05-21T16:32:13.123Z,8.32
2023-05-21T16:34:41.358Z,8.40
2023-05-21T16:37:13.874Z,8.50
2023-05-21T16:39:42.038Z,8.90
2023-05-21T16:42:10.211Z,8.88
2023-05-21T16:44:39.856Z,9.10
2023-05-21T16:47:07.963Z,9.18
2023-05-21T16:49:36.052Z,8.95
2023-05-21T16:52:04.032Z,9.07
2023-05-21T16:54:32.709Z,9.05
2023-05-21T16:57:00.999Z,9.05
2023-05-21T16:59:29.276Z,9.50
2023-05-21T17:01:59.132Z,8.82
2023-05-21T17:04:27.656Z,9.20
2023-05-21T17:06:55.601Z,9.23
2023-05-21T17:09:23.707Z,9.02
2023-05-21T17:11:51.758Z,9.15
2023-05-21T17:14:33.135Z,9.75
2023-05-21T17:17:03.865Z,9.63
2023-05-21T17:19:32.316Z,9.60
2023-05-21T17:22:00.498Z,9.40
2023-05-21T17:24:28.294Z,8.73
2023-05-21T17:26:56.734Z,9.43
2023-05-21T17:29:25.379Z,12.85
2023-05-21T17:31:53.613Z,8.68
2023-05-21T17:34:24.880Z,9.30
2023-05-21T17:36:52.963Z,9.20
2023-05-21T17:39:21.146Z,9.07
2023-05-21T17:41:49.887Z,8.77
2023-05-21T17:44:19.424Z,9.38
2023-05-21T17:46:47.514Z,9.10
2023-05-21T17:49:15.316Z,8.90
2023-05-21T17:51:45.936Z,9.23
2023-05-21T17:54:14.960Z,11.93
2023-05-21T17:56:44.195Z,8.52
2023-05-21T17:59:14.006Z,10.07
2023-05-21T18:01:42.010Z,11.63
2023-05-21T18:04:12.066Z,9.30
2023-05-21T18:06:40.765Z,9.57
2023-05-21T18:09:10.894Z,9.93
2023-05-21T18:11:39.447Z,9.43
2023-05-21T18:14:08.046Z,9.10
2023-05-21T18:16:36.316Z,10.57
2023-05-21T18:19:06.816Z,9.48
2023-05-21T18:21:36.015Z,13.48
2023-05-21T18:24:04.492Z,9.43
2023-05-21T18:26:34.018Z,10.00
2023-05-21T18:29:02.558Z,9.63
2023-05-21T18:31:30.616Z,10.43
2023-05-21T18:33:58.795Z,9.98
2023-05-21T18:36:27.522Z,9.55
2023-05-21T18:38:55.850Z,12.02
2023-05-21T18:41:24.794Z,9.57
2023-05-21T18:43:54.562Z,10.30
2023-05-21T18:46:22.712Z,9.68
2023-05-21T18:48:51.058Z,10.30
2023-05-21T18:51:19.328Z,10.60
2023-05-21T18:53:47.183Z,9.73
2023-05-21T18:56:15.604Z,10.80
2023-05-21T18:58:43.549Z,9.93
2023-05-21T19:01:13.019Z,8.95
2023-05-21T19:03:40.897Z,10.38
2023-05-21T19:06:10.354Z,10.23
2023-05-21T19:08:39.289Z,10.27
2023-05-21T19:11:07.604Z,14.10
2023-05-21T19:13:36.317Z,12.38
2023-05-21T19:16:10.718Z,11.73
2023-05-21T19:18:42.065Z,13.65
2023-05-21T19:21:11.418Z,14.13
2023-05-21T19:23:52.046Z,15.18
2023-05-21T19:26:21.290Z,13.73
2023-05-21T19:28:53.315Z,12.85
2023-05-21T19:31:22.442Z,12.60
2023-05-21T19:33:52.686Z,12.45
2023-05-21T19:36:21.691Z,11.32
2023-05-21T19:38:50.358Z,10.75
2023-05-21T19:41:19.167Z,11.38
2023-05-21T19:43:47.165Z,11.57
2023-05-21T19:46:19.120Z,10.95
2023-05-21T19:48:48.361Z,11.98
2023-05-21T19:51:17.723Z,10.95
2023-05-21T19:53:45.597Z,11.23
2023-05-21T19:56:13.609Z,11.20
2023-05-21T19:58:46.858Z,10.82
2023-05-21T20:01:15.525Z,11.45
2023-05-21T20:03:45.519Z,11.32
2023-05-21T20:06:15.740Z,10.73
2023-05-21T20:08:45.701Z,10.40
2023-05-21T20:11:14.172Z,10.25
2023-05-21T20:13:43.121Z,10.48
2023-05-21T20:16:13.299Z,10.00
2023-05-21T20:18:41.722Z,10.55
2023-05-21T20:21:10.701Z,10.02
2023-05-21T20:23:38.679Z,10.77
2023-05-21T20:26:08.484Z,10.90
2023-05-21T20:28:37.574Z,11.05
2023-05-21T20:31:05.984Z,10.50
2023-05-21T20:33:38.101Z,11.95
2023-05-21T20:36:09.497Z,13.30
2023-05-21T20:38:38.504Z,9.80
2023-05-21T20:41:08.664Z,10.70
2023-05-21T20:43:37.430Z,10.40
2023-05-21T20:46:06.013Z,11.00
2023-05-21T20:48:34.032Z,10.93
2023-05-21T20:51:02.060Z,10.60
2023-05-21T20:53:29.814Z,10.02
2023-05-21T20:55:57.722Z,13.57
2023-05-21T20:58:27.054Z,12.57
2023-05-21T21:00:55.267Z,10.63
2023-05-21T21:03:23.598Z,10.75
2023-05-21T21:05:52.778Z,11.15
2023-05-21T21:08:20.498Z,11.25
2023-05-21T21:10:48.168Z,11.52
2023-05-21T21:13:16.643Z,9.90
2023-05-21T21:15:45.805Z,12.25
2023-05-21T21:18:16.039Z,11.18
2023-05-21T21:20:49.922Z,10.45
2023-05-21T21:23:17.916Z,9.35
2023-05-21T21:25:46.208Z,10.25
2023-05-21T21:28:14.137Z,10.48
2023-05-21T21:30:42.267Z,10.30
2023-05-21T21:33:14.660Z,9.90
2023-05-21T21:35:42.947Z,9.98
2023-05-21T21:38:11.003Z,10.60
2023-05-21T21:40:39.356Z,10.60
2023-05-21T21:43:07.453Z,11.35
2023-05-21T21:45:35.214Z,9.98
2023-05-21T21:48:03.235Z,10.35
2023-05-21T21:50:32.394Z,10.20
2023-05-21T21:53:01.124Z,9.73
2023-05-21T21:55:29.588Z,10.95
2023-05-21T21:57:57.631Z,10.50
2023-05-21T22:00:26.772Z,11.82
2023-05-21T22:02:54.776Z,11.07
2023-05-21T22:05:23.270Z,10.93
2023-05-21T22:07:52.684Z,11.70
2023-05-21T22:10:21.296Z,11.63
2023-05-21T22:12:49.521Z,10.60
2023-05-21T22:15:23.925Z,11.10
2023-05-21T22:17:52.535Z,9.63
2023-05-21T22:20:22.066Z,9.85
2023-05-21T22:22:53.621Z,10.48
2023-05-21T22:25:23.304Z,10.25
2023-05-21T22:27:51.192Z,10.48
2023-05-21T22:30:19.709Z,10.55
2023-05-21T22:32:48.627Z,10.45
2023-05-21T22:35:16.792Z,11.82
2023-05-21T22:37:44.812Z,9.57
2023-05-21T22:40:14.812Z,10.30
2023-05-21T22:42:42.661Z,10.52
2023-05-21T22:45:12.052Z,11.20
2023-05-21T22:47:42.682Z,10.52
2023-05-21T22:50:12.767Z,11.18
2023-05-21T22:52:40.870Z,10.02
2023-05-21T22:55:11.396Z,11.57
2023-05-21T22:57:40.566Z,11.45
2023-05-21T23:00:10.684Z,11.82
2023-05-21T23:02:38.528Z,14.73
2023-05-21T23:05:06.760Z,12.18
2023-05-21T23:07:34.713Z,12.18
2023-05-21T23:10:02.587Z,11.73
2023-05-21T23:12:30.449Z,15.30
2023-05-21T23:14:59.962Z,12.68
2023-05-21T23:17:28.247Z,13.35
2023-05-21T23:19:56.444Z,15.65
2023-05-21T23:22:24.385Z,13.55
2023-05-21T23:24:54.474Z,15.98
2023-05-21T23:27:22.617Z,12.98
2023-05-21T23:29:50.424Z,14.52
2023-05-21T23:32:20.226Z,13.85
2023-05-21T23:34:48.440Z,13.32
2023-05-21T23:37:16.453Z,14.73
2023-05-21T23:39:47.983Z,14.18
2023-05-21T23:42:15.908Z,14.13
2023-05-21T23:44:43.768Z,14.50
2023-05-21T23:47:11.719Z,14.48
2023-05-21T23:49:41.362Z,15.13
2023-05-21T23:52:09.405Z,13.75
2023-05-21T23:54:37.483Z,13.68
2023-05-21T23:57:05.451Z,15.30
2023-05-21T23:59:33.316Z,14.60
